Time;durP1;ratioP1;P1;durP2;ratioP2;P2;SDS_P1;SDS_P2;PMS_P1;PMS_P2;Temp;Humidity;BMP_temperature;BMP_pressure;BME280_temperature;BME280_humidity;BME280_pressure;Samples;Min_cycle;Max_cycle;Signal;HPM_P1;HPM_P2
2021/01/10 00:00:14;;;;;;;126.27;71.87;;;0.10;98.80;;;;;;5147669;27;20533;-80
2021/01/10 00:02:41;;;;;;;119.75;72.05;;;0.00;98.10;;;;;;5129824;27;20996;-80
2021/01/10 00:05:09;;;;;;;122.85;74.68;;;0.00;98.50;;;;;;5147991;27;20239;-80
2021/01/10 00:07:35;;;;;;;124.10;71.82;;;0.00;98.70;;;;;;5128036;27;20216;-80
2021/01/10 00:10:01;;;;;;;129.00;75.70;;;0.00;98.70;;;;;;5146374;27;20187;-80
2021/01/10 00:12:28;;;;;;;119.13;73.35;;;0.00;98.60;;;;;;5146930;27;20328;-80
2021/01/10 00:14:54;;;;;;;121.88;71.40;;;0.20;98.70;;;;;;5146517;27;20183;-80
2021/01/10 00:17:20;;;;;;;131.43;77.60;;;0.10;98.30;;;;;;5147671;27;20187;-80
2021/01/10 00:19:47;;;;;;;110.50;66.90;;;0.20;99.00;;;;;;5129150;27;20183;-80
2021/01/10 00:22:14;;;;;;;120.43;66.10;;;0.20;98.50;;;;;;5128487;27;20598;-80
2021/01/10 00:24:42;;;;;;;113.95;65.97;;;0.20;98.50;;;;;;5146386;27;20635;-80
2021/01/10 00:27:14;;;;;;;111.95;65.90;;;0.20;98.30;;;;;;5146663;27;20183;-80
2021/01/10 00:29:42;;;;;;;111.70;65.55;;;0.20;99.00;;;;;;5145511;27;20162;-80
2021/01/10 00:32:08;;;;;;;118.90;67.20;;;0.20;98.20;;;;;;5127626;27;20667;-80
2021/01/10 00:34:33;;;;;;;110.17;64.80;;;0.30;98.30;;;;;;5122425;28;20204;-80
2021/01/10 00:37:00;;;;;;;111.53;63.33;;;0.20;98.30;;;;;;5106946;28;20187;-80
2021/01/10 00:39:25;;;;;;;105.72;64.28;;;0.20;98.40;;;;;;5132405;27;20562;-80
2021/01/10 00:41:51;;;;;;;106.63;63.63;;;0.30;98.90;;;;;;5144219;27;20190;-80
2021/01/10 00:44:17;;;;;;;104.57;62.23;;;0.30;98.40;;;;;;5143549;27;20179;-80
2021/01/10 00:46:42;;;;;;;109.47;64.23;;;0.20;98.10;;;;;;5144119;27;20566;-80
2021/01/10 00:49:08;;;;;;;97.90;62.37;;;0.20;98.30;;;;;;5124463;27;20286;-80
2021/01/10 00:51:34;;;;;;;103.67;65.40;;;0.20;98.70;;;;;;5143435;27;20179;-80
2021/01/10 00:53:59;;;;;;;109.27;63.00;;;0.20;98.70;;;;;;5143209;27;20469;-80
2021/01/10 00:56:25;;;;;;;106.33;63.63;;;0.30;99.00;;;;;;5125732;27;20251;-80
2021/01/10 00:58:51;;;;;;;112.57;64.20;;;0.30;99.00;;;;;;5143681;27;20265;-80
2021/01/10 01:01:20;;;;;;;100.97;61.87;;;0.30;98.50;;;;;;5143332;27;20175;-80
2021/01/10 01:03:48;;;;;;;103.47;60.92;;;0.30;99.10;;;;;;5143394;27;20195;-80
2021/01/10 01:06:14;;;;;;;100.75;61.28;;;0.40;98.80;;;;;;5126640;28;20179;-80
2021/01/10 01:08:41;;;;;;;113.43;64.60;;;0.40;98.70;;;;;;5130456;28;20243;-80
2021/01/10 01:11:07;;;;;;;104.40;63.38;;;0.40;99.10;;;;;;5148545;28;20184;-80
2021/01/10 01:13:33;;;;;;;103.20;60.30;;;0.40;99.10;;;;;;5128382;28;20250;-80
2021/01/10 01:15:59;;;;;;;99.43;60.88;;;0.40;98.80;;;;;;5128885;28;20187;-79
2021/01/10 01:18:24;;;;;;;98.63;59.77;;;0.50;99.10;;;;;;5147725;28;20526;-80
2021/01/10 01:20:51;;;;;;;104.77;60.97;;;0.40;99.20;;;;;;5146624;28;20191;-80
2021/01/10 01:23:17;;;;;;;94.88;59.22;;;0.50;99.00;;;;;;5146829;28;20179;-80
2021/01/10 01:25:44;;;;;;;98.70;60.37;;;0.50;99.10;;;;;;5145964;28;20630;-80
2021/01/10 01:28:09;;;;;;;100.15;58.40;;;0.40;99.30;;;;;;5146796;28;20191;-80
2021/01/10 01:30:35;;;;;;;107.03;61.80;;;0.40;99.00;;;;;;5127855;28;20614;-80
2021/01/10 01:33:00;;;;;;;97.53;59.00;;;0.40;99.20;;;;;;5126846;28;20211;-79
2021/01/10 01:35:26;;;;;;;102.50;59.83;;;0.50;99.30;;;;;;5145619;28;20180;-80
2021/01/10 01:37:52;;;;;;;107.17;58.23;;;0.40;99.20;;;;;;5125344;28;20233;-80
2021/01/10 01:40:17;;;;;;;100.20;57.43;;;0.40;99.60;;;;;;5125423;28;20172;-80
2021/01/10 01:42:46;;;;;;;96.60;56.23;;;0.40;99.80;;;;;;5107039;28;20245;-80
2021/01/10 01:45:12;;;;;;;104.38;59.00;;;0.40;99.80;;;;;;5107882;28;20247;-80
2021/01/10 01:47:38;;;;;;;92.60;53.25;;;0.50;99.90;;;;;;5108646;28;20584;-80
2021/01/10 01:50:06;;;;;;;104.28;57.45;;;0.50;99.90;;;;;;5126647;28;20183;-80
2021/01/10 01:52:32;;;;;;;104.75;58.42;;;0.40;99.90;;;;;;5106666;28;20188;-80
2021/01/10 01:54:58;;;;;;;111.60;63.00;;;0.50;99.90;;;;;;5126902;28;20179;-80
2021/01/10 01:57:24;;;;;;;101.60;59.00;;;0.50;99.90;;;;;;5110150;28;20184;-80
2021/01/10 01:59:49;;;;;;;105.67;61.77;;;0.50;99.90;;;;;;5129038;28;20172;-80
2021/01/10 02:02:15;;;;;;;96.70;55.30;;;0.50;99.90;;;;;;5129817;28;20632;-80
2021/01/10 02:04:43;;;;;;;107.27;58.47;;;0.40;99.90;;;;;;5130936;28;20176;-80
2021/01/10 02:07:18;;;;;;;106.10;58.05;;;0.40;99.90;;;;;;5130289;28;20219;-80
2021/01/10 02:09:48;;;;;;;106.63;55.38;;;0.40;99.90;;;;;;5111540;28;20234;-80
2021/01/10 02:12:16;;;;;;;106.28;57.78;;;0.30;99.90;;;;;;5110857;28;20572;-80
2021/01/10 02:14:51;;;;;;;107.45;57.72;;;0.20;99.90;;;;;;5111393;28;20555;-80
2021/01/10 02:17:18;;;;;;;102.13;56.53;;;0.20;99.90;;;;;;5127876;28;20623;-80
2021/01/10 02:20:00;;;;;;;110.53;59.03;;;0.10;99.90;;;;;;5107683;28;20222;-80
2021/01/10 02:22:35;;;;;;;124.97;60.90;;;0.00;99.90;;;;;;5125744;28;20195;-80
2021/01/10 02:25:03;;;;;;;113.13;58.55;;;0.00;99.90;;;;;;5125554;28;20510;-80
2021/01/10 02:27:29;;;;;;;109.88;53.17;;;-0.10;99.90;;;;;;5109237;28;20195;-80
2021/01/10 02:29:55;;;;;;;112.03;55.53;;;-0.10;99.90;;;;;;5110291;28;20187;-80
2021/01/10 02:32:23;;;;;;;134.50;57.63;;;-0.10;99.90;;;;;;5127652;28;20600;-80
2021/01/10 02:34:51;;;;;;;117.40;59.00;;;-0.20;99.90;;;;;;5107985;28;20383;-80
2021/01/10 02:37:51;;;;;;;102.40;56.75;;;-0.20;99.90;;;;;;5118389;28;20267;-80
2021/01/10 02:40:30;;;;;;;112.55;55.65;;;-0.20;99.90;;;;;;5122823;28;20621;-80
2021/01/10 02:43:21;;;;;;;113.68;53.67;;;-0.20;99.90;;;;;;5120193;28;20278;-80
2021/01/10 02:45:50;;;;;;;112.65;55.15;;;-0.20;99.90;;;;;;5114276;28;20191;-80
2021/01/10 02:48:16;;;;;;;103.38;52.90;;;-0.20;99.90;;;;;;5127278;28;20254;-80
2021/01/10 02:50:42;;;;;;;91.20;49.50;;;-0.30;99.90;;;;;;5127181;28;20179;-80
2021/01/10 02:53:07;;;;;;;108.00;53.27;;;-0.40;99.90;;;;;;5109314;28;20507;-80
2021/01/10 02:55:33;;;;;;;123.67;51.60;;;-0.40;99.90;;;;;;5128302;28;20379;-80
2021/01/10 02:58:07;;;;;;;101.93;53.07;;;-0.40;99.90;;;;;;5127773;28;20184;-80
2021/01/10 03:00:34;;;;;;;90.70;48.05;;;-0.50;99.90;;;;;;5129600;28;20419;-80
2021/01/10 03:03:01;;;;;;;98.32;54.10;;;-0.40;99.90;;;;;;5110227;28;20739;-80
2021/01/10 03:05:28;;;;;;;97.25;50.95;;;-0.40;99.90;;;;;;5108649;28;20527;-80
2021/01/10 03:07:58;;;;;;;103.97;49.17;;;-0.40;99.90;;;;;;5108671;28;20672;-80
2021/01/10 03:10:24;;;;;;;81.80;42.67;;;-0.40;99.90;;;;;;5128812;28;20187;-80
2021/01/10 03:12:51;;;;;;;86.97;45.90;;;-0.50;99.90;;;;;;5128943;28;20211;-80
2021/01/10 03:15:16;;;;;;;88.45;42.38;;;-0.40;99.90;;;;;;5128332;28;20659;-80
2021/01/10 03:17:47;;;;;;;90.30;39.90;;;-0.40;99.90;;;;;;5109193;28;20227;-80
2021/01/10 03:20:22;;;;;;;92.65;38.90;;;-0.40;99.90;;;;;;5109151;28;20184;-80
2021/01/10 03:22:49;;;;;;;92.28;41.28;;;-0.50;99.90;;;;;;5110356;28;20191;-80
2021/01/10 03:25:17;;;;;;;96.90;39.90;;;-0.60;99.90;;;;;;5110933;28;20233;-80
2021/01/10 03:27:43;;;;;;;78.40;41.20;;;-0.50;99.90;;;;;;5110332;28;20200;-80
2021/01/10 03:30:12;;;;;;;77.63;38.77;;;-0.50;99.90;;;;;;5130381;28;20179;-80
2021/01/10 03:32:38;;;;;;;73.97;36.90;;;-0.40;99.90;;;;;;5110677;28;20467;-80
2021/01/10 03:35:06;;;;;;;73.85;35.83;;;-0.50;99.90;;;;;;5110295;28;20247;-80
2021/01/10 03:37:32;;;;;;;72.00;35.75;;;-0.50;99.90;;;;;;5129687;28;20179;-80
2021/01/10 03:39:57;;;;;;;69.50;32.60;;;-0.60;99.90;;;;;;5129669;28;20212;-80
2021/01/10 03:42:23;;;;;;;64.10;32.93;;;-0.90;99.90;;;;;;5130197;28;20425;-80
2021/01/10 03:44:49;;;;;;;75.20;34.27;;;-0.90;99.90;;;;;;5130970;28;20176;-80
2021/01/10 03:47:14;;;;;;;60.73;32.60;;;-0.80;99.90;;;;;;5110225;28;20192;-80
2021/01/10 03:49:40;;;;;;;63.67;31.77;;;-0.80;99.90;;;;;;5090832;28;20189;-80
2021/01/10 03:52:06;;;;;;;61.10;32.30;;;-0.80;99.90;;;;;;5088988;28;20629;-80
2021/01/10 03:54:31;;;;;;;63.80;34.43;;;-0.80;99.90;;;;;;5089588;28;20207;-80
2021/01/10 03:56:57;;;;;;;64.77;35.73;;;-0.70;99.90;;;;;;5090770;28;20197;-80
2021/01/10 03:59:22;;;;;;;71.43;33.90;;;-0.60;99.90;;;;;;5108450;28;20191;-81
2021/01/10 04:01:48;;;;;;;67.77;37.50;;;-0.60;99.90;;;;;;5087884;28;20284;-80
2021/01/10 04:04:14;;;;;;;73.60;34.57;;;-0.60;99.90;;;;;;5087535;28;20207;-80
2021/01/10 04:06:39;;;;;;;67.03;34.70;;;-0.60;99.90;;;;;;5105947;28;20584;-80
2021/01/10 04:09:05;;;;;;;60.90;34.60;;;-0.60;99.90;;;;;;5106448;28;20295;-80
2021/01/10 04:11:31;;;;;;;63.23;31.40;;;-0.60;99.90;;;;;;5104569;28;20177;-80
2021/01/10 04:13:57;;;;;;;68.63;32.67;;;-0.60;99.90;;;;;;5106258;28;20204;-80
2021/01/10 04:16:22;;;;;;;64.07;34.33;;;-0.60;99.90;;;;;;5106823;28;20301;-80
2021/01/10 04:18:48;;;;;;;61.17;27.87;;;-0.60;99.90;;;;;;5105793;28;20442;-80
2021/01/10 04:21:14;;;;;;;83.60;34.37;;;-0.60;99.90;;;;;;5104930;28;20212;-80
2021/01/10 04:23:39;;;;;;;68.57;34.50;;;-0.70;99.90;;;;;;5105899;28;20182;-80
2021/01/10 04:26:05;;;;;;;63.80;31.90;;;-0.60;99.90;;;;;;5106496;28;20405;-80
2021/01/10 04:28:31;;;;;;;63.00;32.70;;;-0.60;99.90;;;;;;5109508;28;20188;-80
2021/01/10 04:30:58;;;;;;;63.63;30.60;;;-0.60;99.90;;;;;;5108490;28;20402;-81
2021/01/10 04:33:24;;;;;;;63.85;31.52;;;-0.70;99.90;;;;;;5108930;28;20269;-80
2021/01/10 04:35:50;;;;;;;73.13;33.40;;;-0.80;99.90;;;;;;5109937;28;20549;-80
2021/01/10 04:38:16;;;;;;;72.33;34.37;;;-0.70;99.90;;;;;;5089186;28;20177;-80
2021/01/10 04:40:42;;;;;;;90.60;37.00;;;-0.70;99.90;;;;;;5109074;28;20181;-80
2021/01/10 04:43:08;;;;;;;91.75;37.75;;;-0.60;99.90;;;;;;5106058;28;20184;-80
2021/01/10 04:45:34;;;;;;;75.27;38.63;;;-0.60;99.90;;;;;;5088935;28;20200;-80
2021/01/10 04:48:00;;;;;;;69.17;36.07;;;-0.60;99.90;;;;;;5103225;27;20230;-80
2021/01/10 04:50:28;;;;;;;67.05;33.70;;;-0.60;99.90;;;;;;5128993;27;20419;-80
2021/01/10 04:52:56;;;;;;;61.17;27.73;;;-0.70;99.90;;;;;;5150219;27;20260;-80
2021/01/10 04:55:24;;;;;;;75.43;31.02;;;-0.60;99.90;;;;;;5150220;27;20175;-80
2021/01/10 04:57:52;;;;;;;63.92;29.85;;;-0.60;99.90;;;;;;5149417;27;20183;-80
2021/01/10 05:00:19;;;;;;;64.70;30.10;;;-0.60;99.90;;;;;;5127373;27;20236;-80
2021/01/10 05:03:02;;;;;;;61.08;28.00;;;-0.60;99.90;;;;;;5128023;28;20191;-80
2021/01/10 05:05:27;;;;;;;71.15;30.90;;;-0.60;99.90;;;;;;5126355;27;20178;-80
2021/01/10 05:07:53;;;;;;;70.77;31.50;;;-0.50;99.90;;;;;;5148413;28;20550;-80
2021/01/10 05:10:19;;;;;;;64.67;30.10;;;-0.50;99.90;;;;;;5145957;28;20428;-80
2021/01/10 05:12:44;;;;;;;72.30;31.37;;;-0.50;99.90;;;;;;5150773;28;20288;-80
2021/01/10 05:15:12;;;;;;;65.80;30.20;;;-0.40;99.90;;;;;;5128855;28;20179;-80
2021/01/10 05:17:37;;;;;;;79.07;34.20;;;-0.40;99.90;;;;;;5148713;28;20183;-80
2021/01/10 05:20:07;;;;;;;73.07;32.67;;;-0.40;99.90;;;;;;5148812;28;20200;-80
2021/01/10 05:22:33;;;;;;;87.13;33.45;;;-0.40;99.90;;;;;;5130635;28;20195;-80
2021/01/10 05:25:14;;;;;;;84.63;32.77;;;-0.30;99.90;;;;;;5149066;28;20186;-80
2021/01/10 05:27:40;;;;;;;61.35;31.95;;;-0.30;99.90;;;;;;5149824;28;20179;-80
2021/01/10 05:30:06;;;;;;;63.13;30.48;;;-0.30;99.90;;;;;;5152227;27;20191;-80
2021/01/10 05:32:32;;;;;;;74.60;30.85;;;-0.40;99.90;;;;;;5153787;27;20252;-80
2021/01/10 05:34:59;;;;;;;76.50;30.57;;;-0.30;99.90;;;;;;5124936;28;20175;-80
2021/01/10 05:37:25;;;;;;;70.78;32.58;;;-0.40;99.90;;;;;;5103144;28;20192;-80
2021/01/10 05:39:50;;;;;;;75.67;31.57;;;-0.40;99.90;;;;;;5128248;28;20254;-80
2021/01/10 05:42:17;;;;;;;71.30;32.33;;;-0.40;99.90;;;;;;5128855;28;20188;-80
2021/01/10 05:44:43;;;;;;;76.95;33.70;;;-0.40;99.90;;;;;;5131780;28;20180;-80
2021/01/10 05:47:13;;;;;;;78.20;31.30;;;-0.40;99.90;;;;;;5130994;28;20199;-80
2021/01/10 05:49:50;;;;;;;79.25;31.75;;;-0.40;99.90;;;;;;5128085;28;20241;-80
2021/01/10 05:52:17;;;;;;;76.60;31.90;;;-0.40;99.90;;;;;;5129044;28;20188;-80
2021/01/10 05:54:52;;;;;;;60.80;26.90;;;-0.40;99.90;;;;;;5127851;28;20215;-80
2021/01/10 05:57:25;;;;;;;86.85;33.28;;;-0.40;99.90;;;;;;5128944;28;20194;-80
2021/01/10 05:59:52;;;;;;;71.80;32.35;;;-0.30;99.90;;;;;;5132897;28;20156;-81
2021/01/10 06:02:37;;;;;;;76.75;33.40;;;-0.20;99.90;;;;;;5131861;28;20206;-80
2021/01/10 06:05:19;;;;;;;69.65;30.95;;;-0.20;99.90;;;;;;5133557;28;20152;-81
2021/01/10 06:07:47;;;;;;;84.65;33.35;;;-0.20;99.90;;;;;;5131508;28;20188;-80
2021/01/10 06:10:27;;;;;;;79.93;33.10;;;-0.20;99.90;;;;;;5151585;27;20528;-80
2021/01/10 06:13:03;;;;;;;80.38;33.50;;;-0.10;99.90;;;;;;5152309;27;20199;-80
2021/01/10 06:15:34;;;;;;;77.78;31.08;;;-0.10;99.90;;;;;;5133557;27;20182;-80
2021/01/10 06:18:02;;;;;;;73.07;33.05;;;-0.10;99.90;;;;;;5152087;27;20183;-80
2021/01/10 06:20:29;;;;;;;75.50;31.25;;;-0.10;99.90;;;;;;5134577;27;20179;-80
2021/01/10 06:22:57;;;;;;;70.55;30.95;;;0.00;99.90;;;;;;5134090;27;20187;-80
2021/01/10 06:25:28;;;;;;;69.93;29.08;;;0.00;99.90;;;;;;5132239;27;20208;-81
2021/01/10 06:28:13;;;;;;;73.03;31.63;;;0.00;99.90;;;;;;5151661;27;20216;-80
2021/01/10 06:31:01;;;;;;;75.32;29.75;;;0.00;99.90;;;;;;5152326;27;20231;-80
2021/01/10 06:33:33;;;;;;;81.10;30.95;;;0.00;99.90;;;;;;5152480;27;20224;-80
2021/01/10 06:36:04;;;;;;;73.43;28.88;;;0.00;99.90;;;;;;5134604;27;20170;-81
2021/01/10 06:38:34;;;;;;;76.43;30.10;;;0.10;99.90;;;;;;5153124;27;20199;-80
2021/01/10 06:41:35;;;;;;;70.20;27.10;;;0.10;99.90;;;;;;5152300;27;20182;-80
2021/01/10 06:44:05;;;;;;;66.32;26.80;;;0.10;99.90;;;;;;5151999;27;20167;-80
2021/01/10 06:46:31;;;;;;;66.60;27.92;;;-0.10;99.90;;;;;;5132140;27;20195;-80
2021/01/10 06:48:59;;;;;;;60.55;27.42;;;-0.10;99.90;;;;;;5132121;27;20222;-80
2021/01/10 06:51:27;;;;;;;65.88;26.30;;;-0.10;99.90;;;;;;5133211;27;20183;-80
2021/01/10 06:53:54;;;;;;;71.10;27.20;;;-0.10;99.90;;;;;;5150668;27;20300;-80
2021/01/10 06:56:20;;;;;;;68.03;27.80;;;-0.10;99.90;;;;;;5131983;27;20194;-80
2021/01/10 06:59:11;;;;;;;69.70;28.00;;;-0.10;99.90;;;;;;5151670;27;20202;-80
2021/01/10 07:01:52;;;;;;;72.30;29.70;;;-0.10;99.90;;;;;;5151249;27;20170;-80
2021/01/10 07:04:18;;;;;;;67.47;28.80;;;-0.10;99.90;;;;;;5133493;27;20206;-80
2021/01/10 07:06:51;;;;;;;68.88;28.77;;;0.00;99.90;;;;;;5154216;27;20180;-80
2021/01/10 07:09:18;;;;;;;77.32;28.42;;;0.00;99.90;;;;;;5153753;27;20231;-80
2021/01/10 07:11:45;;;;;;;70.47;28.23;;;0.00;99.90;;;;;;5133673;27;20201;-81
2021/01/10 07:14:14;;;;;;;70.22;30.55;;;0.00;99.90;;;;;;5152697;27;20248;-81
2021/01/10 07:16:42;;;;;;;66.03;27.73;;;0.00;99.90;;;;;;5152242;27;20209;-80
2021/01/10 07:19:09;;;;;;;72.57;29.25;;;0.00;99.90;;;;;;5132631;27;20240;-80
2021/01/10 07:21:38;;;;;;;62.10;25.23;;;0.00;99.90;;;;;;5150680;27;20178;-80
2021/01/10 07:24:28;;;;;;;65.53;26.83;;;0.00;99.90;;;;;;5150842;27;20160;-80
2021/01/10 07:26:57;;;;;;;72.18;31.23;;;0.00;99.90;;;;;;5138432;27;20255;-80
2021/01/10 07:29:39;;;;;;;73.72;32.65;;;-0.10;99.90;;;;;;5150638;27;20175;-80
2021/01/10 07:32:09;;;;;;;75.47;29.00;;;0.00;99.90;;;;;;5132715;27;20220;-80
2021/01/10 07:34:44;;;;;;;85.53;31.63;;;0.00;99.90;;;;;;5127255;28;20208;-80
2021/01/10 07:37:11;;;;;;;110.63;46.17;;;0.00;99.90;;;;;;5111633;28;20548;-81
2021/01/10 07:39:52;;;;;;;111.05;47.63;;;0.00;99.90;;;;;;5129299;28;20195;-81
2021/01/10 07:42:20;;;;;;;76.55;32.97;;;0.00;99.90;;;;;;5111242;28;20188;-80
2021/01/10 07:44:50;;;;;;;78.38;29.65;;;0.10;99.90;;;;;;5111705;28;20195;-80
2021/01/10 07:47:17;;;;;;;72.28;29.25;;;0.00;99.90;;;;;;5121388;28;20187;-80
2021/01/10 07:49:51;;;;;;;90.22;38.83;;;0.00;99.90;;;;;;5130081;28;20164;-80
2021/01/10 07:52:37;;;;;;;103.13;39.17;;;-0.10;99.90;;;;;;5129810;28;20195;-80
2021/01/10 07:55:04;;;;;;;83.78;31.45;;;0.00;99.90;;;;;;5130386;28;20176;-80
2021/01/10 07:57:33;;;;;;;83.97;36.53;;;0.00;99.90;;;;;;5110131;28;20208;-80
2021/01/10 08:00:08;;;;;;;89.93;39.22;;;0.00;99.90;;;;;;5130727;28;20194;-80
2021/01/10 08:03:01;;;;;;;91.05;40.90;;;0.10;99.90;;;;;;5129833;28;20187;-80
2021/01/10 08:05:34;;;;;;;85.97;33.67;;;0.10;99.90;;;;;;5083017;28;20233;-80
2021/01/10 08:08:03;;;;;;;140.93;48.67;;;0.10;99.90;;;;;;5112291;28;20207;-80
2021/01/10 08:10:48;;;;;;;248.18;80.30;;;0.20;99.90;;;;;;5109966;28;20202;-80
2021/01/10 08:13:36;;;;;;;113.00;42.08;;;0.20;99.90;;;;;;5131219;28;20226;-80
2021/01/10 08:16:09;;;;;;;104.38;38.67;;;0.10;99.90;;;;;;5112402;28;20191;-80
2021/01/10 08:18:41;;;;;;;80.70;32.95;;;0.20;99.90;;;;;;5112833;28;20188;-80
2021/01/10 08:21:14;;;;;;;83.53;36.40;;;0.20;99.90;;;;;;5131722;28;20172;-80
2021/01/10 08:23:42;;;;;;;131.93;52.55;;;0.20;99.90;;;;;;5112175;28;20226;-80
2021/01/10 08:26:13;;;;;;;115.60;50.08;;;0.20;99.90;;;;;;5129675;28;20184;-80
2021/01/10 08:28:43;;;;;;;84.70;35.47;;;0.30;99.90;;;;;;5129314;28;20306;-80
2021/01/10 08:31:11;;;;;;;72.10;30.95;;;0.40;99.90;;;;;;5129106;28;20190;-80
2021/01/10 08:33:38;;;;;;;73.43;31.90;;;0.30;99.90;;;;;;5130721;28;20603;-80
2021/01/10 08:36:22;;;;;;;90.53;35.95;;;0.30;99.90;;;;;;5130639;28;20529;-80
2021/01/10 08:38:51;;;;;;;70.10;32.92;;;0.30;99.90;;;;;;5128754;28;20646;-80
2021/01/10 08:41:40;;;;;;;103.93;40.17;;;0.40;99.90;;;;;;5127677;28;20176;-80
2021/01/10 08:44:10;;;;;;;98.55;40.50;;;0.40;99.90;;;;;;5108887;28;20191;-80
2021/01/10 08:46:38;;;;;;;82.35;34.40;;;0.40;99.90;;;;;;5109444;28;20221;-80
2021/01/10 08:49:04;;;;;;;73.57;33.35;;;0.30;99.90;;;;;;5111110;28;20235;-80
2021/01/10 08:51:34;;;;;;;144.35;50.95;;;0.40;99.90;;;;;;5130100;28;20251;-80
2021/01/10 08:54:09;;;;;;;114.05;42.92;;;0.50;99.90;;;;;;5111691;28;20235;-80
2021/01/10 08:56:35;;;;;;;110.45;39.58;;;0.50;99.90;;;;;;5130278;28;20191;-80
2021/01/10 08:59:01;;;;;;;97.97;36.17;;;0.40;99.90;;;;;;5130314;28;20168;-80
2021/01/10 09:01:27;;;;;;;95.45;37.60;;;0.40;99.90;;;;;;5111167;28;20182;-80
2021/01/10 09:04:01;;;;;;;71.72;32.15;;;0.30;99.90;;;;;;5111180;28;20237;-80
2021/01/10 09:06:45;;;;;;;92.68;37.25;;;0.40;99.90;;;;;;5131710;28;20183;-80
2021/01/10 09:09:45;;;;;;;90.88;37.53;;;0.60;99.90;;;;;;5132414;28;20160;-80
2021/01/10 09:12:22;;;;;;;140.98;49.97;;;0.60;99.90;;;;;;5113812;28;20252;-80
2021/01/10 09:14:52;;;;;;;116.40;42.20;;;0.70;99.90;;;;;;5132156;28;20203;-81
2021/01/10 09:17:26;;;;;;;120.22;45.08;;;0.70;99.90;;;;;;5131130;28;20535;-80
2021/01/10 09:19:58;;;;;;;95.65;39.80;;;0.60;99.90;;;;;;5112811;28;20183;-80
2021/01/10 09:22:30;;;;;;;88.97;35.58;;;0.60;99.90;;;;;;5131238;28;20184;-80
2021/01/10 09:24:56;;;;;;;91.60;35.38;;;0.60;99.90;;;;;;5118843;28;20176;-80
2021/01/10 09:27:21;;;;;;;67.20;27.57;;;0.50;99.90;;;;;;5129697;28;20309;-80
2021/01/10 09:29:47;;;;;;;78.10;32.17;;;0.40;99.90;;;;;;5131233;28;20406;-80
2021/01/10 09:32:23;;;;;;;66.30;28.27;;;0.50;99.90;;;;;;5127532;28;20439;-80
2021/01/10 09:34:56;;;;;;;67.20;27.38;;;0.50;99.90;;;;;;5112203;28;20221;-80
2021/01/10 09:37:30;;;;;;;85.07;31.65;;;0.50;99.90;;;;;;5130833;28;20656;-80
2021/01/10 09:40:09;;;;;;;117.57;42.15;;;0.50;99.90;;;;;;5107548;28;20193;-80
2021/01/10 09:42:46;;;;;;;126.30;42.10;;;0.60;99.90;;;;;;5118885;28;20279;-80
2021/01/10 09:45:14;;;;;;;127.65;39.45;;;0.50;99.90;;;;;;5112420;28;20588;-80
2021/01/10 09:47:40;;;;;;;138.98;46.00;;;0.60;99.90;;;;;;5120809;28;20250;-80
2021/01/10 09:50:24;;;;;;;110.13;39.63;;;0.60;99.90;;;;;;5112276;28;20198;-80
2021/01/10 09:52:53;;;;;;;146.40;42.22;;;0.60;99.90;;;;;;5126586;28;20215;-80
2021/01/10 09:55:27;;;;;;;94.15;36.22;;;0.70;99.90;;;;;;5111283;28;20211;-80
2021/01/10 09:57:54;;;;;;;105.82;39.40;;;0.60;99.90;;;;;;5113017;28;20286;-79
2021/01/10 10:00:20;;;;;;;137.55;42.03;;;0.50;99.90;;;;;;5112577;28;20664;-80
2021/01/10 10:02:47;;;;;;;141.27;43.80;;;0.60;99.90;;;;;;5131443;28;20174;-80
2021/01/10 10:05:19;;;;;;;117.43;41.33;;;0.50;99.90;;;;;;5131024;28;20193;-80
2021/01/10 10:08:01;;;;;;;232.65;62.22;;;0.50;99.90;;;;;;5128116;28;20186;-80
2021/01/10 10:10:28;;;;;;;210.27;62.22;;;0.60;99.90;;;;;;5113047;28;20183;-80
2021/01/10 10:13:08;;;;;;;138.70;43.70;;;0.50;99.90;;;;;;5131781;28;20215;-80
2021/01/10 10:15:37;;;;;;;219.20;55.83;;;0.60;99.90;;;;;;5130176;28;20651;-80
2021/01/10 10:18:04;;;;;;;140.60;44.00;;;0.50;99.90;;;;;;5132890;28;20184;-80
2021/01/10 10:20:30;;;;;;;98.63;36.15;;;0.50;99.90;;;;;;5133289;28;20180;-80
2021/01/10 10:23:05;;;;;;;84.40;33.40;;;0.50;99.90;;;;;;5132940;28;20675;-80
2021/01/10 10:25:31;;;;;;;91.22;33.58;;;0.40;99.90;;;;;;5127279;28;20379;-80
2021/01/10 10:28:01;;;;;;;98.40;35.80;;;0.50;99.90;;;;;;5132992;28;20190;-80
2021/01/10 10:30:27;;;;;;;107.43;35.28;;;0.40;99.90;;;;;;5101756;28;20196;-80
2021/01/10 10:32:53;;;;;;;85.63;31.05;;;0.40;99.90;;;;;;5111548;28;20220;-80
2021/01/10 10:35:19;;;;;;;130.98;42.45;;;0.20;99.90;;;;;;5113139;28;20195;-80
2021/01/10 10:37:46;;;;;;;91.27;36.87;;;0.30;99.90;;;;;;5114417;28;20191;-80
2021/01/10 10:40:12;;;;;;;125.35;38.50;;;0.30;99.90;;;;;;5108685;28;20395;-80
2021/01/10 10:42:38;;;;;;;118.60;42.58;;;0.30;99.90;;;;;;5112920;28;20241;-80
2021/01/10 10:45:04;;;;;;;105.10;33.20;;;0.40;99.90;;;;;;5113442;28;20225;-80
2021/01/10 10:47:30;;;;;;;80.78;29.30;;;0.30;99.90;;;;;;5117406;28;20257;-81
2021/01/10 10:49:56;;;;;;;129.27;38.43;;;0.20;99.90;;;;;;5113845;28;20184;-81
2021/01/10 10:52:21;;;;;;;169.60;51.33;;;0.30;99.90;;;;;;5134423;28;20240;-80
2021/01/10 10:54:47;;;;;;;180.83;50.80;;;0.30;99.90;;;;;;5119208;28;20203;-81
2021/01/10 10:57:13;;;;;;;117.10;39.90;;;0.40;99.90;;;;;;5132486;28;20274;-80
2021/01/10 10:59:39;;;;;;;161.47;49.33;;;0.40;99.90;;;;;;5111324;28;20191;-80
2021/01/10 11:02:08;;;;;;;173.55;54.20;;;0.30;99.90;;;;;;5132206;28;20252;-80
2021/01/10 11:04:34;;;;;;;121.53;42.00;;;0.50;99.90;;;;;;5131442;28;20180;-80
2021/01/10 11:07:01;;;;;;;147.10;45.13;;;0.50;99.90;;;;;;5131808;28;20188;-81
2021/01/10 11:09:27;;;;;;;88.60;31.33;;;0.40;99.90;;;;;;5132329;28;20160;-80
2021/01/10 11:11:53;;;;;;;110.97;39.73;;;0.40;99.90;;;;;;5113909;28;20249;-80
2021/01/10 11:14:18;;;;;;;129.67;40.83;;;0.40;99.90;;;;;;5131826;28;20200;-80
2021/01/10 11:16:50;;;;;;;119.03;39.67;;;0.50;99.90;;;;;;5130316;28;20187;-80
2021/01/10 11:19:15;;;;;;;103.15;37.90;;;0.50;99.90;;;;;;5111696;28;20377;-80
2021/01/10 11:21:46;;;;;;;86.63;34.63;;;0.50;99.90;;;;;;5131915;28;20606;-80
2021/01/10 11:24:13;;;;;;;95.47;36.25;;;0.60;99.90;;;;;;5132755;28;20203;-81
2021/01/10 11:26:40;;;;;;;72.50;29.25;;;0.40;99.90;;;;;;5111815;28;20551;-80
2021/01/10 11:29:06;;;;;;;83.75;30.35;;;0.50;99.90;;;;;;5106186;28;20199;-80
2021/01/10 11:31:34;;;;;;;93.03;32.95;;;0.40;99.90;;;;;;5116906;28;20720;-80
2021/01/10 11:34:00;;;;;;;73.82;28.95;;;0.40;99.90;;;;;;5123977;28;20269;-80
2021/01/10 11:36:26;;;;;;;110.60;33.95;;;0.30;99.90;;;;;;5132124;28;20190;-80
2021/01/10 11:38:53;;;;;;;81.55;30.98;;;0.30;99.90;;;;;;5131401;28;20644;-80
2021/01/10 11:41:20;;;;;;;63.78;23.52;;;0.30;99.90;;;;;;5118226;28;20189;-81
2021/01/10 11:43:49;;;;;;;52.70;22.23;;;0.10;99.90;;;;;;5130981;28;20184;-80
2021/01/10 11:46:16;;;;;;;64.38;24.95;;;0.10;99.90;;;;;;5130909;27;20180;-80
2021/01/10 11:48:42;;;;;;;63.17;27.80;;;0.00;99.90;;;;;;5110867;28;20227;-81
2021/01/10 11:51:10;;;;;;;55.92;24.60;;;0.10;99.90;;;;;;5105503;28;20547;-80
2021/01/10 11:53:36;;;;;;;59.13;25.15;;;0.00;99.90;;;;;;5127268;28;20214;-81
2021/01/10 11:56:02;;;;;;;64.95;27.55;;;0.00;99.90;;;;;;5119631;28;20187;-80
2021/01/10 11:58:28;;;;;;;59.53;27.20;;;0.00;99.90;;;;;;5091424;28;20252;-80
2021/01/10 12:00:55;;;;;;;65.67;27.87;;;0.00;99.90;;;;;;5103498;28;20195;-80
2021/01/10 12:03:22;;;;;;;66.85;28.38;;;0.00;99.90;;;;;;5113104;28;20424;-80
2021/01/10 12:05:49;;;;;;;81.03;28.95;;;0.10;99.90;;;;;;5130442;28;20179;-80
2021/01/10 12:08:14;;;;;;;68.13;27.50;;;0.10;99.90;;;;;;5120180;28;20212;-80
2021/01/10 12:10:41;;;;;;;90.17;32.70;;;0.00;99.90;;;;;;5109606;28;20197;-80
2021/01/10 12:13:07;;;;;;;116.82;36.17;;;0.10;99.90;;;;;;5133923;28;20473;-80
2021/01/10 12:15:34;;;;;;;82.13;30.50;;;0.00;99.90;;;;;;5103951;28;20275;-80
2021/01/10 12:18:00;;;;;;;75.32;32.88;;;0.10;99.90;;;;;;5112955;28;20195;-80
2021/01/10 12:20:27;;;;;;;125.28;41.08;;;0.00;99.90;;;;;;5113606;28;20187;-80
2021/01/10 12:22:53;;;;;;;105.25;37.60;;;0.00;99.90;;;;;;5122641;28;20188;-80
2021/01/10 12:25:18;;;;;;;95.13;35.67;;;0.00;99.90;;;;;;5111916;28;20183;-80
2021/01/10 12:27:45;;;;;;;83.80;35.13;;;0.00;99.90;;;;;;5112866;28;20200;-80
2021/01/10 12:30:11;;;;;;;93.35;35.63;;;0.00;99.90;;;;;;5132166;28;20456;-80
2021/01/10 12:32:38;;;;;;;121.53;43.15;;;0.00;99.90;;;;;;5113649;28;20243;-80
2021/01/10 12:35:09;;;;;;;99.43;37.10;;;0.10;99.90;;;;;;5129713;28;20202;-80
2021/01/10 12:37:36;;;;;;;95.80;33.92;;;-0.10;99.90;;;;;;5114132;28;20196;-80
2021/01/10 12:40:06;;;;;;;85.18;33.85;;;-0.10;99.90;;;;;;5118294;28;20184;-81